SEE weather

Gillespie Field
San Diego/El Cajon, California, United States

Public forecast

Using degrees Fahrenheit for public forecast. Weather courtesy of forecast.io.

METAR (pilot weather report)

Retrieved 2019/07/22 09:35 UTC (0 seconds ago):

KSEE 220935Z AUTO 32003KT 10SM OVC015 20/16 A2993 RMK AO2

TAF (pilot weather forecast)

Forecast is more than 12 hours old.

Closest forecast is Miramar Marine Corps Air Station - Mitscher Field, 9.0 nm (16.6 km) WNW. Retrieved 2014/11/27 15:09 UTC (5 years ago):

TAF COR KNKX 271500Z 2715/2815 VRB05KT 9999 SKC QNH3001INS BECMG 2806/2808 07007KT QNH2998INS TX30/2721Z TN14/2812Z COR 1520